West Andover, Ohio
Current Conditions -  °F | °C
As of 5:53 PM on Tuesday 25 Nov 2014 (Local Time) from KHZY Reporting Station
Overcast Overcast  
Wind Chill: 27°   Ceiling: 2300
Heat Index: 35°   Visibility: 10mi
Dew Point: 27°   Wind: 12mph
Humidity: 72%   Direction: 260°W
Pressure: 30.12"   Gusts: NA
Location:  41.6317°N, 80.577°W
Report Text: KHZY 252253Z AUTO 26010KT 10SM OVC023 02/M03 A3012 RMK AO2 SLP207 T00171028
Loading
Personal Weather Stations






























Interactive Weather Map New forecast layout! Learn more

10-Day Weather Forecast

Advertisements
Track Severe Weather on mobile